sensor_id;sensor_type;location;lat;lon;timestamp;temperature;humidity
9167;DHT22;4618;48.818;9.088;2023-04-03T00:06:06;3.40;1.00
9167;DHT22;4618;48.818;9.088;2023-04-03T00:08:34;3.40;1.00
9167;DHT22;4618;48.818;9.088;2023-04-03T00:11:00;3.30;1.00
9167;DHT22;4618;48.818;9.088;2023-04-03T00:13:26;3.40;1.00
9167;DHT22;4618;48.818;9.088;2023-04-03T00:18:17;3.40;1.00
9167;DHT22;4618;48.818;9.088;2023-04-03T00:23:08;3.20;1.00
9167;DHT22;4618;48.818;9.088;2023-04-03T00:28:00;3.30;1.00
9167;DHT22;4618;48.818;9.088;2023-04-03T00:30:25;3.30;1.00
9167;DHT22;4618;48.818;9.088;2023-04-03T00:32:51;3.20;1.00
9167;DHT22;4618;48.818;9.088;2023-04-03T03:27:59;2.90;1.00
9167;DHT22;4618;48.818;9.088;2023-04-03T03:45:02;3.00;99.90
9167;DHT22;4618;48.818;9.088;2023-04-03T03:52:19;3.10;99.90
9167;DHT22;4618;48.818;9.088;2023-04-03T03:54:45;3.10;99.90
9167;DHT22;4618;48.818;9.088;2023-04-03T03:57:10;3.10;99.90
9167;DHT22;4618;48.818;9.088;2023-04-03T04:33:40;3.10;99.90
9167;DHT22;4618;48.818;9.088;2023-04-03T04:48:15;3.00;65.30
9167;DHT22;4618;48.818;9.088;2023-04-03T05:29:36;3.10;1.00
9167;DHT22;4618;48.818;9.088;2023-04-03T05:32:01;3.20;1.00
9167;DHT22;4618;48.818;9.088;2023-04-03T05:34:27;3.20;1.00
9167;DHT22;4618;48.818;9.088;2023-04-03T05:36:53;3.30;1.00
9167;DHT22;4618;48.818;9.088;2023-04-03T05:41:44;3.30;1.00
9167;DHT22;4618;48.818;9.088;2023-04-03T05:44:10;3.30;1.00
9167;DHT22;4618;48.818;9.088;2023-04-03T05:46:35;3.30;1.00
9167;DHT22;4618;48.818;9.088;2023-04-03T05:49:01;3.40;1.00
9167;DHT22;4618;48.818;9.088;2023-04-03T05:51:31;3.40;1.00
9167;DHT22;4618;48.818;9.088;2023-04-03T05:54:21;3.50;1.00
9167;DHT22;4618;48.818;9.088;2023-04-03T05:56:44;3.50;1.00
9167;DHT22;4618;48.818;9.088;2023-04-03T05:59:09;3.50;1.20
9167;DHT22;4618;48.818;9.088;2023-04-03T06:01:35;3.50;1.00
9167;DHT22;4618;48.818;9.088;2023-04-03T06:04:01;3.50;1.00
9167;DHT22;4618;48.818;9.088;2023-04-03T06:06:26;3.40;1.00
9167;DHT22;4618;48.818;9.088;2023-04-03T06:09:07;3.50;1.00
9167;DHT22;4618;48.818;9.088;2023-04-03T06:11:33;3.60;1.00
9167;DHT22;4618;48.818;9.088;2023-04-03T06:13:59;3.60;1.00
9167;DHT22;4618;48.818;9.088;2023-04-03T06:16:24;3.70;1.00
9167;DHT22;4618;48.818;9.088;2023-04-03T06:18:50;3.80;1.00
9167;DHT22;4618;48.818;9.088;2023-04-03T06:21:15;3.90;1.00
9167;DHT22;4618;48.818;9.088;2023-04-03T06:23:41;4.00;1.00
9167;DHT22;4618;48.818;9.088;2023-04-03T06:26:07;4.10;1.00
9167;DHT22;4618;48.818;9.088;2023-04-03T06:28:32;4.00;1.00
9167;DHT22;4618;48.818;9.088;2023-04-03T06:30:58;3.90;1.00
9167;DHT22;4618;48.818;9.088;2023-04-03T06:33:23;3.90;1.00
9167;DHT22;4618;48.818;9.088;2023-04-03T06:35:49;4.00;1.00
9167;DHT22;4618;48.818;9.088;2023-04-03T06:38:14;4.00;1.00
9167;DHT22;4618;48.818;9.088;2023-04-03T06:40:40;4.10;1.00
9167;DHT22;4618;48.818;9.088;2023-04-03T06:43:05;4.20;1.00
9167;DHT22;4618;48.818;9.088;2023-04-03T06:45:31;4.30;1.00
9167;DHT22;4618;48.818;9.088;2023-04-03T06:47:56;4.30;1.00
9167;DHT22;4618;48.818;9.088;2023-04-03T06:50:22;4.30;1.00
9167;DHT22;4618;48.818;9.088;2023-04-03T06:52:48;4.30;1.00
9167;DHT22;4618;48.818;9.088;2023-04-03T06:55:13;4.40;1.00
9167;DHT22;4618;48.818;9.088;2023-04-03T06:57:38;4.30;1.00
9167;DHT22;4618;48.818;9.088;2023-04-03T07:00:04;4.30;1.00
9167;DHT22;4618;48.818;9.088;2023-04-03T07:02:30;4.20;1.00
9167;DHT22;4618;48.818;9.088;2023-04-03T07:04:56;4.30;1.00
9167;DHT22;4618;48.818;9.088;2023-04-03T07:07:21;4.20;1.00
9167;DHT22;4618;48.818;9.088;2023-04-03T07:09:47;4.10;1.00
9167;DHT22;4618;48.818;9.088;2023-04-03T07:12:13;4.20;1.00
9167;DHT22;4618;48.818;9.088;2023-04-03T07:14:39;4.30;1.00
9167;DHT22;4618;48.818;9.088;2023-04-03T07:17:04;4.50;1.00
9167;DHT22;4618;48.818;9.088;2023-04-03T07:19:30;4.60;1.00
9167;DHT22;4618;48.818;9.088;2023-04-03T07:21:56;4.80;1.00
9167;DHT22;4618;48.818;9.088;2023-04-03T07:24:22;4.90;1.00
9167;DHT22;4618;48.818;9.088;2023-04-03T07:26:50;4.90;1.00
9167;DHT22;4618;48.818;9.088;2023-04-03T07:29:16;5.00;1.00
9167;DHT22;4618;48.818;9.088;2023-04-03T07:31:42;5.10;1.00
9167;DHT22;4618;48.818;9.088;2023-04-03T07:34:07;5.20;1.00
9167;DHT22;4618;48.818;9.088;2023-04-03T07:36:33;5.30;1.00
9167;DHT22;4618;48.818;9.088;2023-04-03T07:38:58;5.40;1.00
9167;DHT22;4618;48.818;9.088;2023-04-03T07:41:24;5.40;1.00
9167;DHT22;4618;48.818;9.088;2023-04-03T07:43:49;5.60;1.00
9167;DHT22;4618;48.818;9.088;2023-04-03T07:46:15;5.70;1.00
9167;DHT22;4618;48.818;9.088;2023-04-03T07:48:40;5.90;1.00
9167;DHT22;4618;48.818;9.088;2023-04-03T07:51:06;5.90;1.00
9167;DHT22;4618;48.818;9.088;2023-04-03T07:53:32;6.00;99.90
9167;DHT22;4618;48.818;9.088;2023-04-03T07:55:58;6.00;99.90
9167;DHT22;4618;48.818;9.088;2023-04-03T07:58:24;6.00;99.90
9167;DHT22;4618;48.818;9.088;2023-04-03T08:00:49;5.90;99.90
9167;DHT22;4618;48.818;9.088;2023-04-03T08:03:15;5.80;99.90
9167;DHT22;4618;48.818;9.088;2023-04-03T08:05:44;5.90;99.90
9167;DHT22;4618;48.818;9.088;2023-04-03T08:08:11;5.90;99.90
9167;DHT22;4618;48.818;9.088;2023-04-03T08:10:37;6.30;99.90
9167;DHT22;4618;48.818;9.088;2023-04-03T08:13:03;6.30;99.90
9167;DHT22;4618;48.818;9.088;2023-04-03T08:15:29;6.20;99.90
9167;DHT22;4618;48.818;9.088;2023-04-03T08:17:55;6.30;99.90
9167;DHT22;4618;48.818;9.088;2023-04-03T08:20:20;6.20;99.90
9167;DHT22;4618;48.818;9.088;2023-04-03T08:22:46;6.40;99.90
9167;DHT22;4618;48.818;9.088;2023-04-03T08:25:11;6.70;99.90
9167;DHT22;4618;48.818;9.088;2023-04-03T08:27:37;6.80;99.90
9167;DHT22;4618;48.818;9.088;2023-04-03T08:30:03;6.80;99.90
9167;DHT22;4618;48.818;9.088;2023-04-03T08:32:29;6.70;99.90
9167;DHT22;4618;48.818;9.088;2023-04-03T08:34:55;6.60;99.90
9167;DHT22;4618;48.818;9.088;2023-04-03T08:37:20;6.60;99.90
9167;DHT22;4618;48.818;9.088;2023-04-03T08:39:46;6.70;99.90
9167;DHT22;4618;48.818;9.088;2023-04-03T08:42:21;7.00;99.90
9167;DHT22;4618;48.818;9.088;2023-04-03T08:44:54;7.30;99.90
9167;DHT22;4618;48.818;9.088;2023-04-03T08:47:34;7.60;99.90
9167;DHT22;4618;48.818;9.088;2023-04-03T08:50:04;8.00;99.90
9167;DHT22;4618;48.818;9.088;2023-04-03T08:52:38;8.30;99.90
9167;DHT22;4618;48.818;9.088;2023-04-03T08:55:13;8.50;99.90
9167;DHT22;4618;48.818;9.088;2023-04-03T08:57:42;8.50;99.90
9167;DHT22;4618;48.818;9.088;2023-04-03T09:02:42;8.60;99.90
9167;DHT22;4618;48.818;9.088;2023-04-03T09:05:12;8.20;99.90
9167;DHT22;4618;48.818;9.088;2023-04-03T09:07:39;8.20;99.90
9167;DHT22;4618;48.818;9.088;2023-04-03T09:10:07;7.90;99.90
9167;DHT22;4618;48.818;9.088;2023-04-03T09:12:39;8.20;99.90
9167;DHT22;4618;48.818;9.088;2023-04-03T09:15:20;8.30;99.90
9167;DHT22;4618;48.818;9.088;2023-04-03T09:17:49;8.20;99.90
9167;DHT22;4618;48.818;9.088;2023-04-03T09:22:45;8.50;99.90
9167;DHT22;4618;48.818;9.088;2023-04-03T09:27:39;8.30;99.90
9167;DHT22;4618;48.818;9.088;2023-04-03T09:30:04;8.10;99.90
9167;DHT22;4618;48.818;9.088;2023-04-03T09:32:33;7.80;99.90
9167;DHT22;4618;48.818;9.088;2023-04-03T09:35:01;7.60;99.90
9167;DHT22;4618;48.818;9.088;2023-04-03T09:38:29;7.40;99.90
9167;DHT22;4618;48.818;9.088;2023-04-03T09:42:54;7.50;99.90
9167;DHT22;4618;48.818;9.088;2023-04-03T09:45:27;7.40;99.90
9167;DHT22;4618;48.818;9.088;2023-04-03T09:48:03;7.50;99.90
9167;DHT22;4618;48.818;9.088;2023-04-03T09:50:30;7.70;99.90
9167;DHT22;4618;48.818;9.088;2023-04-03T09:52:55;7.80;99.90
9167;DHT22;4618;48.818;9.088;2023-04-03T09:55:22;7.90;99.90
9167;DHT22;4618;48.818;9.088;2023-04-03T09:57:59;8.00;99.90
9167;DHT22;4618;48.818;9.088;2023-04-03T10:02:56;7.90;99.90
9167;DHT22;4618;48.818;9.088;2023-04-03T10:05:35;7.70;99.90
9167;DHT22;4618;48.818;9.088;2023-04-03T10:10:41;7.70;99.90
9167;DHT22;4618;48.818;9.088;2023-04-03T10:13:10;7.60;99.90
9167;DHT22;4618;48.818;9.088;2023-04-03T10:15:40;7.60;99.90
9167;DHT22;4618;48.818;9.088;2023-04-03T10:18:13;7.60;99.90
9167;DHT22;4618;48.818;9.088;2023-04-03T10:20:44;7.70;99.90
9167;DHT22;4618;48.818;9.088;2023-04-03T10:23:15;8.00;99.90
9167;DHT22;4618;48.818;9.088;2023-04-03T10:36:01;8.60;99.90
9167;DHT22;4618;48.818;9.088;2023-04-03T10:41:21;8.70;99.90
9167;DHT22;4618;48.818;9.088;2023-04-03T10:44:01;8.70;99.90
9167;DHT22;4618;48.818;9.088;2023-04-03T10:46:34;8.60;99.90
9167;DHT22;4618;48.818;9.088;2023-04-03T10:49:25;8.30;99.90
9167;DHT22;4618;48.818;9.088;2023-04-03T10:52:11;7.90;99.90
9167;DHT22;4618;48.818;9.088;2023-04-03T10:54:39;7.60;99.90
9167;DHT22;4618;48.818;9.088;2023-04-03T10:57:07;7.50;99.90
9167;DHT22;4618;48.818;9.088;2023-04-03T11:02:17;7.30;99.90
9167;DHT22;4618;48.818;9.088;2023-04-03T11:04:44;7.30;99.90
9167;DHT22;4618;48.818;9.088;2023-04-03T11:07:17;7.40;99.90
9167;DHT22;4618;48.818;9.088;2023-04-03T11:09:44;7.20;99.90
9167;DHT22;4618;48.818;9.088;2023-04-03T11:12:23;7.10;99.90
9167;DHT22;4618;48.818;9.088;2023-04-03T11:14:50;7.40;99.90
9167;DHT22;4618;48.818;9.088;2023-04-03T11:20:33;7.60;99.90
9167;DHT22;4618;48.818;9.088;2023-04-03T11:25:20;7.70;99.90
9167;DHT22;4618;48.818;9.088;2023-04-03T11:30:23;7.70;99.90
9167;DHT22;4618;48.818;9.088;2023-04-03T11:35:35;7.60;99.90
9167;DHT22;4618;48.818;9.088;2023-04-03T11:38:02;7.50;99.90
9167;DHT22;4618;48.818;9.088;2023-04-03T11:40:31;7.50;99.90
9167;DHT22;4618;48.818;9.088;2023-04-03T12:08:29;8.10;99.90
9167;DHT22;4618;48.818;9.088;2023-04-03T12:13:34;8.60;99.90
9167;DHT22;4618;48.818;9.088;2023-04-03T12:15:59;9.00;99.90
9167;DHT22;4618;48.818;9.088;2023-04-03T12:18:42;9.10;99.90
9167;DHT22;4618;48.818;9.088;2023-04-03T12:21:08;9.10;99.90
9167;DHT22;4618;48.818;9.088;2023-04-03T12:23:34;9.00;99.90
9167;DHT22;4618;48.818;9.088;2023-04-03T12:26:01;9.00;99.90
9167;DHT22;4618;48.818;9.088;2023-04-03T12:28:35;9.00;99.90
9167;DHT22;4618;48.818;9.088;2023-04-03T12:31:01;9.00;99.90
9167;DHT22;4618;48.818;9.088;2023-04-03T12:33:34;9.00;99.90
9167;DHT22;4618;48.818;9.088;2023-04-03T12:36:05;9.10;99.90
9167;DHT22;4618;48.818;9.088;2023-04-03T12:46:47;9.10;99.90
9167;DHT22;4618;48.818;9.088;2023-04-03T12:51:57;10.60;99.90
9167;DHT22;4618;48.818;9.088;2023-04-03T12:54:23;10.20;99.90
9167;DHT22;4618;48.818;9.088;2023-04-03T12:56:51;10.10;99.90
9167;DHT22;4618;48.818;9.088;2023-04-03T12:59:20;9.80;99.90
9167;DHT22;4618;48.818;9.088;2023-04-03T13:01:53;9.50;99.90
9167;DHT22;4618;48.818;9.088;2023-04-03T13:04:19;9.10;99.90
9167;DHT22;4618;48.818;9.088;2023-04-03T13:06:44;8.90;99.90
9167;DHT22;4618;48.818;9.088;2023-04-03T13:09:27;8.60;99.90
9167;DHT22;4618;48.818;9.088;2023-04-03T13:12:00;8.40;99.90
9167;DHT22;4618;48.818;9.088;2023-04-03T13:14:26;8.30;99.90
9167;DHT22;4618;48.818;9.088;2023-04-03T13:16:54;8.30;99.90
9167;DHT22;4618;48.818;9.088;2023-04-03T13:19:22;8.60;99.90
9167;DHT22;4618;48.818;9.088;2023-04-03T13:21:47;8.80;99.90
9167;DHT22;4618;48.818;9.088;2023-04-03T13:24:14;8.60;99.90
9167;DHT22;4618;48.818;9.088;2023-04-03T13:26:40;8.80;99.90
9167;DHT22;4618;48.818;9.088;2023-04-03T13:29:07;9.10;99.90
9167;DHT22;4618;48.818;9.088;2023-04-03T13:31:42;9.40;99.90
9167;DHT22;4618;48.818;9.088;2023-04-03T13:34:13;9.40;99.90
9167;DHT22;4618;48.818;9.088;2023-04-03T13:39:20;9.20;99.90
9167;DHT22;4618;48.818;9.088;2023-04-03T13:41:47;9.10;99.90
9167;DHT22;4618;48.818;9.088;2023-04-03T13:44:25;8.80;99.90
9167;DHT22;4618;48.818;9.088;2023-04-03T13:46:52;9.20;99.90
9167;DHT22;4618;48.818;9.088;2023-04-03T13:49:22;9.50;99.90
9167;DHT22;4618;48.818;9.088;2023-04-03T13:51:53;9.60;99.90
9167;DHT22;4618;48.818;9.088;2023-04-03T13:56:53;9.80;99.90
9167;DHT22;4618;48.818;9.088;2023-04-03T13:59:21;10.00;99.90
9167;DHT22;4618;48.818;9.088;2023-04-03T14:06:48;10.40;99.90
9167;DHT22;4618;48.818;9.088;2023-04-03T14:09:14;10.30;99.90
9167;DHT22;4618;48.818;9.088;2023-04-03T14:11:40;10.30;99.90
9167;DHT22;4618;48.818;9.088;2023-04-03T14:14:11;10.20;99.90
9167;DHT22;4618;48.818;9.088;2023-04-03T14:16:38;10.20;99.90
9167;DHT22;4618;48.818;9.088;2023-04-03T14:19:04;9.80;99.90
9167;DHT22;4618;48.818;9.088;2023-04-03T14:21:30;9.50;99.90
9167;DHT22;4618;48.818;9.088;2023-04-03T14:23:56;9.30;99.90
9167;DHT22;4618;48.818;9.088;2023-04-03T14:26:23;9.10;99.90
9167;DHT22;4618;48.818;9.088;2023-04-03T14:28:51;8.90;99.90
9167;DHT22;4618;48.818;9.088;2023-04-03T14:31:18;9.00;99.90
9167;DHT22;4618;48.818;9.088;2023-04-03T14:33:46;9.00;99.90
9167;DHT22;4618;48.818;9.088;2023-04-03T14:36:25;9.10;99.90
9167;DHT22;4618;48.818;9.088;2023-04-03T14:38:52;8.90;99.90
9167;DHT22;4618;48.818;9.088;2023-04-03T14:41:21;8.70;99.90
9167;DHT22;4618;48.818;9.088;2023-04-03T14:43:49;8.60;99.90
9167;DHT22;4618;48.818;9.088;2023-04-03T14:46:35;8.80;99.90
9167;DHT22;4618;48.818;9.088;2023-04-03T14:49:03;9.00;99.90
9167;DHT22;4618;48.818;9.088;2023-04-03T14:51:33;9.20;99.90
9167;DHT22;4618;48.818;9.088;2023-04-03T14:53:59;9.00;99.90
9167;DHT22;4618;48.818;9.088;2023-04-03T14:56:27;9.00;99.90
9167;DHT22;4618;48.818;9.088;2023-04-03T14:58:59;9.20;99.90
9167;DHT22;4618;48.818;9.088;2023-04-03T15:01:26;10.50;99.90
9167;DHT22;4618;48.818;9.088;2023-04-03T15:03:52;12.90;99.90
9167;DHT22;4618;48.818;9.088;2023-04-03T15:06:18;15.00;99.90
9167;DHT22;4618;48.818;9.088;2023-04-03T15:08:45;15.00;99.90
9167;DHT22;4618;48.818;9.088;2023-04-03T15:11:12;14.00;99.90
9167;DHT22;4618;48.818;9.088;2023-04-03T15:13:38;12.50;99.90
9167;DHT22;4618;48.818;9.088;2023-04-03T15:16:37;12.90;99.90
9167;DHT22;4618;48.818;9.088;2023-04-03T15:18:56;13.40;99.90
9167;DHT22;4618;48.818;9.088;2023-04-03T15:21:21;12.50;99.90
9167;DHT22;4618;48.818;9.088;2023-04-03T15:23:47;11.50;99.90
9167;DHT22;4618;48.818;9.088;2023-04-03T15:26:13;11.00;99.90
9167;DHT22;4618;48.818;9.088;2023-04-03T15:28:42;10.50;99.90
9167;DHT22;4618;48.818;9.088;2023-04-03T15:31:09;10.90;99.90
9167;DHT22;4618;48.818;9.088;2023-04-03T15:33:35;12.60;99.90
9167;DHT22;4618;48.818;9.088;2023-04-03T15:36:02;12.90;99.90
9167;DHT22;4618;48.818;9.088;2023-04-03T15:38:28;13.00;99.90
9167;DHT22;4618;48.818;9.088;2023-04-03T15:40:54;13.00;99.90
9167;DHT22;4618;48.818;9.088;2023-04-03T15:43:20;11.90;99.90
9167;DHT22;4618;48.818;9.088;2023-04-03T15:45:47;10.60;99.90
9167;DHT22;4618;48.818;9.088;2023-04-03T15:48:13;9.10;99.90
9167;DHT22;4618;48.818;9.088;2023-04-03T15:50:39;8.70;99.90
9167;DHT22;4618;48.818;9.088;2023-04-03T15:53:05;8.30;99.90
9167;DHT22;4618;48.818;9.088;2023-04-03T15:55:33;7.90;99.90
9167;DHT22;4618;48.818;9.088;2023-04-03T15:57:59;8.30;99.90
9167;DHT22;4618;48.818;9.088;2023-04-03T16:00:26;9.80;99.90
9167;DHT22;4618;48.818;9.088;2023-04-03T16:02:55;11.00;99.90
9167;DHT22;4618;48.818;9.088;2023-04-03T16:05:23;11.70;99.90
9167;DHT22;4618;48.818;9.088;2023-04-03T16:07:49;11.20;99.90
9167;DHT22;4618;48.818;9.088;2023-04-03T16:10:17;10.00;99.90
9167;DHT22;4618;48.818;9.088;2023-04-03T16:12:43;10.00;99.90
9167;DHT22;4618;48.818;9.088;2023-04-03T16:15:09;10.80;99.90
9167;DHT22;4618;48.818;9.088;2023-04-03T16:17:36;11.60;99.90
9167;DHT22;4618;48.818;9.088;2023-04-03T16:20:05;12.10;99.90
9167;DHT22;4618;48.818;9.088;2023-04-03T16:22:31;13.00;99.90
9167;DHT22;4618;48.818;9.088;2023-04-03T16:24:57;13.50;99.90
9167;DHT22;4618;48.818;9.088;2023-04-03T16:27:22;13.30;99.90
9167;DHT22;4618;48.818;9.088;2023-04-03T16:29:55;13.60;99.90
9167;DHT22;4618;48.818;9.088;2023-04-03T16:32:22;13.50;99.90
9167;DHT22;4618;48.818;9.088;2023-04-03T16:34:48;12.60;99.90
9167;DHT22;4618;48.818;9.088;2023-04-03T16:37:14;11.00;99.90
9167;DHT22;4618;48.818;9.088;2023-04-03T16:39:40;9.70;99.90
9167;DHT22;4618;48.818;9.088;2023-04-03T16:42:05;8.60;99.90
9167;DHT22;4618;48.818;9.088;2023-04-03T16:44:31;7.90;99.90
9167;DHT22;4618;48.818;9.088;2023-04-03T16:46:56;7.60;99.90
9167;DHT22;4618;48.818;9.088;2023-04-03T16:49:22;7.50;99.90
9167;DHT22;4618;48.818;9.088;2023-04-03T16:51:48;8.30;99.90
9167;DHT22;4618;48.818;9.088;2023-04-03T16:54:13;8.40;99.90
9167;DHT22;4618;48.818;9.088;2023-04-03T16:56:39;8.00;99.90
9167;DHT22;4618;48.818;9.088;2023-04-03T16:59:05;7.70;99.90
9167;DHT22;4618;48.818;9.088;2023-04-03T17:01:30;7.40;99.90
9167;DHT22;4618;48.818;9.088;2023-04-03T17:03:56;7.10;99.90
9167;DHT22;4618;48.818;9.088;2023-04-03T17:06:22;6.80;99.90
9167;DHT22;4618;48.818;9.088;2023-04-03T17:08:49;6.50;99.90
9167;DHT22;4618;48.818;9.088;2023-04-03T17:11:15;6.30;99.90
9167;DHT22;4618;48.818;9.088;2023-04-03T17:13:41;6.20;99.90
9167;DHT22;4618;48.818;9.088;2023-04-03T17:16:07;6.20;99.90
9167;DHT22;4618;48.818;9.088;2023-04-03T17:18:33;6.20;99.90
9167;DHT22;4618;48.818;9.088;2023-04-03T17:21:00;6.00;99.90
9167;DHT22;4618;48.818;9.088;2023-04-03T17:23:26;6.00;99.90
9167;DHT22;4618;48.818;9.088;2023-04-03T17:25:51;5.80;99.90
9167;DHT22;4618;48.818;9.088;2023-04-03T17:28:19;5.80;99.90
9167;DHT22;4618;48.818;9.088;2023-04-03T17:30:46;5.50;99.90
9167;DHT22;4618;48.818;9.088;2023-04-03T17:33:12;5.50;99.90
9167;DHT22;4618;48.818;9.088;2023-04-03T17:35:37;5.40;99.90
9167;DHT22;4618;48.818;9.088;2023-04-03T17:38:03;5.30;99.90
9167;DHT22;4618;48.818;9.088;2023-04-03T17:40:29;5.30;99.90
9167;DHT22;4618;48.818;9.088;2023-04-03T17:42:54;5.20;99.90
9167;DHT22;4618;48.818;9.088;2023-04-03T17:45:20;5.30;99.90
9167;DHT22;4618;48.818;9.088;2023-04-03T17:47:45;5.10;99.90
9167;DHT22;4618;48.818;9.088;2023-04-03T17:50:11;5.20;99.90
9167;DHT22;4618;48.818;9.088;2023-04-03T17:52:37;5.00;99.90
9167;DHT22;4618;48.818;9.088;2023-04-03T17:55:03;4.90;99.90
9167;DHT22;4618;48.818;9.088;2023-04-03T17:57:29;4.80;99.90
9167;DHT22;4618;48.818;9.088;2023-04-03T17:59:56;4.80;99.90
9167;DHT22;4618;48.818;9.088;2023-04-03T18:02:22;4.70;99.90
9167;DHT22;4618;48.818;9.088;2023-04-03T18:04:51;4.70;99.90
9167;DHT22;4618;48.818;9.088;2023-04-03T18:07:17;4.70;99.90
9167;DHT22;4618;48.818;9.088;2023-04-03T18:09:45;4.70;99.90
9167;DHT22;4618;48.818;9.088;2023-04-03T18:12:12;4.70;99.90
9167;DHT22;4618;48.818;9.088;2023-04-03T18:14:38;4.70;99.90
9167;DHT22;4618;48.818;9.088;2023-04-03T18:17:05;4.70;99.90
9167;DHT22;4618;48.818;9.088;2023-04-03T18:19:31;4.70;99.90
9167;DHT22;4618;48.818;9.088;2023-04-03T18:22:02;4.70;99.90
9167;DHT22;4618;48.818;9.088;2023-04-03T18:24:34;4.70;99.90
9167;DHT22;4618;48.818;9.088;2023-04-03T18:27:02;4.70;99.90
9167;DHT22;4618;48.818;9.088;2023-04-03T18:29:32;4.70;99.90
9167;DHT22;4618;48.818;9.088;2023-04-03T18:32:00;4.60;99.90
9167;DHT22;4618;48.818;9.088;2023-04-03T18:34:29;4.50;99.90
9167;DHT22;4618;48.818;9.088;2023-04-03T18:36:54;4.50;99.90
9167;DHT22;4618;48.818;9.088;2023-04-03T18:39:20;4.60;99.90
9167;DHT22;4618;48.818;9.088;2023-04-03T18:41:46;4.60;99.90
9167;DHT22;4618;48.818;9.088;2023-04-03T18:44:14;4.70;99.90
9167;DHT22;4618;48.818;9.088;2023-04-03T18:46:41;4.60;99.90
9167;DHT22;4618;48.818;9.088;2023-04-03T18:49:08;4.50;99.90
9167;DHT22;4618;48.818;9.088;2023-04-03T18:51:34;4.40;99.90
9167;DHT22;4618;48.818;9.088;2023-04-03T18:54:00;4.30;99.90
9167;DHT22;4618;48.818;9.088;2023-04-03T18:56:25;4.20;99.90
9167;DHT22;4618;48.818;9.088;2023-04-03T18:58:51;4.10;99.90
9167;DHT22;4618;48.818;9.088;2023-04-03T19:01:17;4.00;99.90
9167;DHT22;4618;48.818;9.088;2023-04-03T19:03:43;4.00;99.90
9167;DHT22;4618;48.818;9.088;2023-04-03T19:06:09;3.90;99.90
9167;DHT22;4618;48.818;9.088;2023-04-03T19:08:34;3.90;99.90
9167;DHT22;4618;48.818;9.088;2023-04-03T19:11:00;3.80;99.90
9167;DHT22;4618;48.818;9.088;2023-04-03T19:13:26;3.80;99.90
9167;DHT22;4618;48.818;9.088;2023-04-03T19:15:53;3.80;99.90
9167;DHT22;4618;48.818;9.088;2023-04-03T19:18:26;3.60;99.90
9167;DHT22;4618;48.818;9.088;2023-04-03T19:20:54;3.50;99.90
9167;DHT22;4618;48.818;9.088;2023-04-03T19:23:21;3.40;99.90
9167;DHT22;4618;48.818;9.088;2023-04-03T19:25:46;3.30;99.90
9167;DHT22;4618;48.818;9.088;2023-04-03T19:28:12;3.30;99.90
9167;DHT22;4618;48.818;9.088;2023-04-03T19:30:39;3.10;99.90
9167;DHT22;4618;48.818;9.088;2023-04-03T19:33:04;3.10;99.90
9167;DHT22;4618;48.818;9.088;2023-04-03T19:35:30;3.10;99.90
9167;DHT22;4618;48.818;9.088;2023-04-03T19:37:56;3.10;99.90
9167;DHT22;4618;48.818;9.088;2023-04-03T19:40:22;3.10;99.90
9167;DHT22;4618;48.818;9.088;2023-04-03T19:42:49;3.00;99.90
9167;DHT22;4618;48.818;9.088;2023-04-03T19:45:15;3.10;99.90
9167;DHT22;4618;48.818;9.088;2023-04-03T19:47:42;3.00;99.90
9167;DHT22;4618;48.818;9.088;2023-04-03T19:50:08;3.10;99.90
9167;DHT22;4618;48.818;9.088;2023-04-03T19:52:34;3.20;99.90
9167;DHT22;4618;48.818;9.088;2023-04-03T19:55:00;3.20;99.90
9167;DHT22;4618;48.818;9.088;2023-04-03T19:57:26;3.20;99.90
9167;DHT22;4618;48.818;9.088;2023-04-03T19:59:51;3.20;99.90
9167;DHT22;4618;48.818;9.088;2023-04-03T20:02:17;3.30;99.90
9167;DHT22;4618;48.818;9.088;2023-04-03T20:04:43;3.30;99.90
9167;DHT22;4618;48.818;9.088;2023-04-03T20:07:08;3.40;99.90
9167;DHT22;4618;48.818;9.088;2023-04-03T20:09:34;3.40;99.90
9167;DHT22;4618;48.818;9.088;2023-04-03T20:12:00;3.40;99.90
9167;DHT22;4618;48.818;9.088;2023-04-03T20:14:27;3.40;99.90
9167;DHT22;4618;48.818;9.088;2023-04-03T20:16:52;3.40;99.90
9167;DHT22;4618;48.818;9.088;2023-04-03T20:19:18;3.40;99.90
9167;DHT22;4618;48.818;9.088;2023-04-03T20:21:44;3.30;99.90
9167;DHT22;4618;48.818;9.088;2023-04-03T20:24:10;3.30;99.90
9167;DHT22;4618;48.818;9.088;2023-04-03T20:26:36;3.20;99.90
9167;DHT22;4618;48.818;9.088;2023-04-03T20:29:03;3.20;99.90
9167;DHT22;4618;48.818;9.088;2023-04-03T20:31:30;3.10;99.90
9167;DHT22;4618;48.818;9.088;2023-04-03T20:33:57;2.90;99.90
9167;DHT22;4618;48.818;9.088;2023-04-03T20:38:50;2.70;99.90
